KMDH Weather | Aviation | SIU

Home
Southern Illinois University

CONTACT

SIU.EDU

Aviation - Weather

College of Applied Sciences and Arts

KMDH Weather

NOTICE: Although all weather products are taken from the National Weather Service, this data should be used only as a supplement to a formal weather briefing.

Last Updated: Thursday, February 25th, 2021, 2:07 am
Information on this page is updated every 5 minutes.


METARS

KMDH 250752Z AUTO 34006KT 9SM CLR 02/M01 A3031 RMK AO2 SLP264 T00171011

KMDH 250652Z AUTO 35007KT 9SM CLR 02/M01 A3030 RMK AO2 SLP259 T00221006

KMDH 250552Z AUTO 36009KT 9SM CLR 04/01 A3027 RMK AO2 SLP251 T00390006 10117

KMWA 250755Z AUTO 34005KT 10SM CLR 02/00 A3031 RMK AO2 T00160000

KMWA 250735Z AUTO 35005KT 10SM CLR 02/00 A3031 RMK AO2 T00180000

KMWA 250715Z AUTO 36006KT 10SM CLR 02/01 A3030 RMK AO2 T00230006

KMWA 250655Z AUTO 35006KT 10SM CLR 03/01 A3030 RMK AO2 T00250010

KMWA 250635Z AUTO 36007KT 10SM SCT015 03/01 A3029 RMK AO2 T00280011

KMWA 250615Z AUTO 36010KT 10SM OVC015 03/02 A3028 RMK AO2 T00340015

KMWA 250555Z AUTO 36011G14KT 10SM BKN015 04/02 A3028 RMK AO2 T00350015 10118

KMWA 250535Z AUTO 01009KT 10SM CLR 04/01 A3027 RMK AO2 T00360013

KMWA 250515Z AUTO 01011G16KT 10SM CLR 04/01 A3026 RMK AO2 T00420014

KCGI 250753Z AUTO 01012KT 10SM CLR 03/00 A3029 RMK AO2 SLP255 T00330000

KCGI 250653Z AUTO 01012KT 10SM CLR 04/01 A3027 RMK AO2 SLP251 T00440006

KCGI 250553Z AUTO 02010G17KT 10SM CLR 06/02 A3025 RMK AO2 SLP242 T00560017 10128

KSAR 250607Z AUTO 36004KT 10SM CLR 02/00 A3030 RMK AO2

KSAR 250526Z AUTO 35006KT 10SM CLR 02/00 A3029 RMK AO2

KFAM 250756Z AUTO 35005KT 10SM CLR 01/M01 A3032 RMK AO2 SLP278 T00111011 FZRANO

KFAM 250724Z AUTO 36006KT 10SM SCT019 02/M01 A3031 RMK AO2 FZRANO

KFAM 250656Z AUTO 02006KT 10SM BKN019 02/M01 A3031 RMK AO2 SLP276 T00221006

KFAM 250556Z AUTO 02005KT 10SM BKN017 03/00 A3028 RMK AO2 SLP269 T00280000 10111

KFAM 250552Z AUTO 01006KT 10SM BKN017 03/00 A3028 RMK AO2 401780028

KMVN 250756Z AUTO VRB03KT 10SM CLR 02/01 A3031 RMK AO2 SLP268 T00170006 FZRANO

KMVN 250656Z AUTO VRB03KT 10SM CLR 02/01 A3030 RMK AO2 SLP265 T00220011 FZRANO

KMVN 250556Z AUTO 01005KT 10SM CLR 03/01 A3028 RMK AO2 SLP257 T00280011 10106

KMVN 250509Z AUTO 01006KT 10SM SCT015 03/01 A3027 RMK AO2

KHSB 250755Z AUTO 35006KT 10SM CLR 01/M01 A3030 RMK AO2 T00101010

KHSB 250735Z AUTO 36004KT 10SM CLR 02/00 A3029 RMK AO2 T00201001

KHSB 250715Z AUTO 01003KT 10SM CLR 02/00 A3029 RMK AO2 T00211001

KCIR 250755Z 10SM SCT018 03/01 A3028 RMK AO2 T00340010

KCIR 250735Z 10SM CLR 04/01 A3028 RMK AO2 T00370011

KCIR 250715Z 10SM CLR 04/01 A3026 RMK AO2 T00400012

KPAH 250803Z AUTO 03009KT 10SM BKN016 04/01 A3027 RMK AO2 T00440011

KPAH 250753Z AUTO 02009KT 10SM SCT016 04/01 A3026 RMK AO2 SLP248 T00440006

KFAM 250756Z AUTO 35005KT 10SM CLR 01/M01 A3032 RMK AO2 SLP278 T00111011 FZRANO

KFAM 250724Z AUTO 36006KT 10SM SCT019 02/M01 A3031 RMK AO2 FZRANO

KBLV 250756Z AUTO 36006KT 10SM FEW140 02/00 A3031 RMK AO2 SLP269 T00150003 $

KVIH 250753Z AUTO 03004KT 10SM CLR 01/M03 A3033 RMK AO2 SLP274 T00061028

KENL 250755Z AUTO 00000KT 10SM CLR 02/00 A3031 RMK AO2 T00150000

KENL 250735Z AUTO 00000KT 10SM CLR 02/00 A3031 RMK AO2 T00200000

KENL 250715Z AUTO 00000KT 10SM CLR 02/00 A3030 RMK AO2 T00210001

KMTO 250753Z AUTO 31004KT 8SM FEW032 M01/M02 A3030 RMK AO2 SLP264 T10111022

KFWC 250755Z AUTO 35003KT 10SM CLR 02/00 A3030 RMK AO1 T00161005

KFWC 250735Z AUTO 35003KT 10SM CLR 02/00 A3029 RMK AO1 T00171003

KFWC 250715Z AUTO 35003KT 10SM CLR 02/00 A3029 RMK AO1 T00201003

KCUL 250756Z AUTO 34007KT 10SM CLR 02/00 A3029 RMK AO2

KCUL 250736Z AUTO 35008KT 10SM CLR 02/00 A3028 RMK AO2

KCUL 250716Z AUTO 34007KT 10SM CLR 02/00 A3028 RMK AO2

KEVV 250754Z AUTO 35006KT 10SM CLR 02/M01 A3027 RMK AO2 SLP252 T00221011

KCEY 250755Z AUTO 01012KT 10SM FEW028 05/02 A3024 RMK AO1

KCEY 250735Z AUTO 01009KT 10SM CLR 05/02 A3023 RMK AO1

KCEY 250715Z AUTO 36008KT 10SM CLR 05/02 A3023 RMK AO1

KHOP 250756Z AUTO 36006KT 10SM CLR 05/04 A3022 RMK AO2 SLP236 T00460037

KARG 250756Z AUTO 02008KT 10SM OVC050 08/03 A3027 RMK AO2 SLP251 T00830028

KJBR 250753Z AUTO 04015G20KT 10SM OVC050 09/02 A3024 RMK AO2 SLP239 T00940017

KALN 250755Z AUTO 34003KT 10SM CLR 01/00 A3034 RMK AO2 T00051005

KALN 250735Z AUTO 33004KT 10SM CLR 01/00 A3034 RMK AO2 T00071003

KALN 250715Z AUTO 32005KT 10SM CLR 01/00 A3034 RMK AO2 T00081003

KALN 250755Z AUTO 34003KT 10SM CLR 01/00 A3034 RMK AO2 T00051005

KALN 250735Z AUTO 33004KT 10SM CLR 01/00 A3034 RMK AO2 T00071003

KALN 250715Z AUTO 32005KT 10SM CLR 01/00 A3034 RMK AO2 T00081003

KCOU 250754Z AUTO 35007KT 10SM CLR M01/M03 A3036 RMK AO2 SLP284 T10111033

KAJG 250735Z AUTO 36006KT 10SM CLR 02/00 A3029 RMK AO2 T00211002

KAJG 250715Z AUTO 36005KT 10SM CLR 03/00 A3029 RMK AO2 T00251001

KDEC 250754Z AUTO 31008KT 10SM CLR 00/M01 A3032 RMK AO2 SLP270 T00001011

KIJX 250735Z AUTO 33005KT 10SM CLR M01/M01 A3034 RMK AO2 T10151015

KIJX 250715Z AUTO 32006KT 10SM CLR M01/M01 A3034 RMK AO2 T10101011


TAFS

KEVV 250525Z 2506/2606 36005KT P6SM BKN150


Winds Aloft



Pilot Reports

No pilot reports found for area.



Area Forecast



Significant Weather

WSUS32 KKCI 250655 SIGC CONVECTIVE SIGMET...NONE OUTLOOK VALID 250855-251255 TS ARE NOT EXPD.
WSUS32 KKCI 250755 SIGC CONVECTIVE SIGMET...NONE OUTLOOK VALID 250955-251355 TS ARE NOT EXPD.